Terminal Aerodrome Forecast
Issued by NWS Corpus Christi, TX

Home | Current Version | Previous Version | Text Only | Print | Product List | Glossary On
Versions: 1 2 3 4 5 6 7 8 9 10 11 12 13 14 15 16 17
000
FTUS44 KCRP 011728
TAFCRP
TAF
KCRP 011728Z 0118/0218 VRB05KT P6SM FEW040 SCT250
     FM011900 09008KT P6SM FEW040 FEW250
     FM021000 VRB04KT P6SM FEW020=

USA.gov is the U.S. government's official web portal to all federal, state and local government web resources and services.